Time;durP1;ratioP1;P1;durP2;ratioP2;P2;SDS_P1;SDS_P2;PMS_P1;PMS_P2;Temp;Humidity;BMP_temperature;BMP_pressure;BME280_temperature;BME280_humidity;BME280_pressure;Samples;Min_cycle;Max_cycle;Signal;HPM_P1;HPM_P2
2023/08/22 00:01:06;;;;;;;3.97;3.13;;;15.40;99.90;;;;;;4965568;28;20583;-76
2023/08/22 00:03:32;;;;;;;3.15;2.67;;;15.40;99.90;;;;;;4975031;28;20504;-76
2023/08/22 00:05:58;;;;;;;4.07;2.63;;;15.40;99.90;;;;;;4974946;28;20540;-76
2023/08/22 00:08:25;;;;;;;4.72;3.05;;;15.40;99.90;;;;;;4978378;28;20818;-76
2023/08/22 00:10:51;;;;;;;6.18;3.85;;;14.00;99.90;;;;;;4979123;28;20058;-76
2023/08/22 00:13:16;;;;;;;5.00;3.33;;;15.40;99.90;;;;;;4983463;28;20060;-76
2023/08/22 00:15:42;;;;;;;5.57;4.43;;;15.40;99.90;;;;;;4976530;28;20526;-75
2023/08/22 00:18:10;;;;;;;11.27;7.47;;;15.40;99.90;;;;;;4983770;28;20167;-75
2023/08/22 00:20:36;;;;;;;10.73;6.68;;;15.40;99.90;;;;;;4979063;28;20046;-75
2023/08/22 00:23:03;;;;;;;11.70;7.20;;;15.40;99.90;;;;;;4975324;28;20050;-75
2023/08/22 00:25:29;;;;;;;13.32;7.93;;;15.50;99.90;;;;;;4975848;28;20050;-75
2023/08/22 00:27:56;;;;;;;11.63;8.57;;;15.40;99.90;;;;;;4981160;28;20064;-75
2023/08/22 00:30:22;;;;;;;12.55;7.95;;;15.40;99.90;;;;;;4975543;28;20073;-75
2023/08/22 00:32:48;;;;;;;15.90;7.38;;;15.40;99.90;;;;;;4972749;28;20631;-75
2023/08/22 00:35:14;;;;;;;10.95;8.48;;;15.40;99.90;;;;;;4972144;28;20535;-76
2023/08/22 00:37:40;;;;;;;11.40;7.70;;;15.30;99.90;;;;;;4975706;28;20054;-76
2023/08/22 00:40:07;;;;;;;7.72;6.40;;;15.30;99.90;;;;;;4976114;28;20046;-77
2023/08/22 00:42:32;;;;;;;10.85;7.20;;;15.30;99.90;;;;;;4961341;28;20057;-76
2023/08/22 00:45:01;;;;;;;11.23;6.80;;;15.30;99.90;;;;;;4976428;28;20166;-76
2023/08/22 00:47:27;;;;;;;8.18;6.10;;;15.30;99.90;;;;;;4978155;28;20138;-75
2023/08/22 00:49:53;;;;;;;9.73;7.10;;;15.30;99.90;;;;;;4975505;28;20113;-75
2023/08/22 00:52:19;;;;;;;7.50;6.45;;;15.30;99.90;;;;;;4975553;28;20062;-75
2023/08/22 00:54:46;;;;;;;7.32;5.47;;;15.30;99.90;;;;;;4975761;28;20050;-74
2023/08/22 00:57:13;;;;;;;5.88;5.22;;;15.30;99.90;;;;;;4979663;28;20050;-78
2023/08/22 00:59:39;;;;;;;7.63;5.75;;;15.30;99.90;;;;;;4975936;28;20423;-76
2023/08/22 01:02:07;;;;;;;8.23;5.00;;;15.30;99.90;;;;;;4963937;28;20052;-76
2023/08/22 01:04:33;;;;;;;12.90;5.93;;;15.30;99.90;;;;;;4975276;28;20051;-76
2023/08/22 01:07:10;;;;;;;8.63;5.63;;;15.30;99.90;;;;;;4979935;28;20581;-76
2023/08/22 01:09:59;;;;;;;13.45;5.72;;;15.30;99.90;;;;;;4969732;28;20046;-76
2023/08/22 01:12:53;;;;;;;12.75;7.07;;;15.30;99.90;;;;;;4975934;28;20061;-76
2023/08/22 01:15:29;;;;;;;8.25;6.28;;;15.40;99.90;;;;;;4979568;28;20046;-76
2023/08/22 01:17:57;;;;;;;10.45;6.10;;;15.40;99.90;;;;;;4978749;28;20822;-76
2023/08/22 01:20:25;;;;;;;11.48;7.95;;;15.40;99.90;;;;;;4972148;28;20061;-77
2023/08/22 01:22:51;;;;;;;16.20;8.90;;;15.40;99.90;;;;;;4955798;28;20754;-75
2023/08/22 01:25:17;;;;;;;11.82;9.48;;;15.50;99.90;;;;;;4977385;28;20043;-76
2023/08/22 01:28:12;;;;;;;14.55;9.05;;;15.50;99.90;;;;;;4977358;28;20189;-77
2023/08/22 01:30:43;;;;;;;10.02;8.27;;;15.50;99.90;;;;;;4939751;28;20149;-77
2023/08/22 01:33:26;;;;;;;13.35;8.20;;;15.50;99.90;;;;;;4974477;28;20141;-76
2023/08/22 01:35:55;;;;;;;13.00;8.68;;;15.50;99.90;;;;;;4983378;28;20054;-76
2023/08/22 01:38:25;;;;;;;13.30;9.70;;;15.50;99.90;;;;;;4978832;28;20136;-76
2023/08/22 01:40:52;;;;;;;11.00;7.82;;;15.60;99.90;;;;;;4982257;28;20136;-77
2023/08/22 01:43:19;;;;;;;9.85;7.00;;;15.60;99.90;;;;;;4979080;28;20061;-75
2023/08/22 01:45:45;;;;;;;12.50;7.50;;;15.60;99.90;;;;;;4978219;28;20487;-76
2023/08/22 01:48:11;;;;;;;10.18;7.05;;;15.60;99.90;;;;;;4979571;28;20065;-77
2023/08/22 01:50:36;;;;;;;7.53;6.30;;;15.60;99.90;;;;;;4981205;28;20216;-76
2023/08/22 01:53:06;;;;;;;11.50;7.32;;;17.30;99.90;;;;;;4979048;28;20050;-76
2023/08/22 01:55:32;;;;;;;8.27;6.05;;;15.60;99.90;;;;;;4961647;28;20458;-76
2023/08/22 01:57:57;;;;;;;12.93;8.45;;;15.60;99.90;;;;;;4978186;28;20046;-76
2023/08/22 02:00:23;;;;;;;10.32;7.93;;;15.60;99.90;;;;;;4989034;28;20078;-76
2023/08/22 02:02:49;;;;;;;8.88;6.75;;;15.60;99.90;;;;;;4977676;28;20122;-77
2023/08/22 02:05:15;;;;;;;10.77;6.32;;;15.50;99.90;;;;;;4982031;28;20054;-78
2023/08/22 02:07:41;;;;;;;11.98;7.70;;;15.50;99.90;;;;;;4980507;28;20054;-76
2023/08/22 02:10:09;;;;;;;11.40;7.85;;;15.50;99.90;;;;;;4977180;28;20050;-76
2023/08/22 02:12:35;;;;;;;12.10;8.82;;;13.20;99.90;;;;;;4980630;28;20057;-76
2023/08/22 02:15:02;;;;;;;10.93;8.73;;;15.50;99.90;;;;;;4976363;28;20058;-76
2023/08/22 02:17:27;;;;;;;9.55;7.03;;;15.50;99.90;;;;;;4961511;28;20058;-76
2023/08/22 02:19:53;;;;;;;10.02;7.28;;;15.50;99.90;;;;;;4980882;28;20060;-76
2023/08/22 02:22:19;;;;;;;13.60;7.82;;;15.50;99.90;;;;;;4980034;28;20039;-76
2023/08/22 02:24:45;;;;;;;15.60;7.80;;;15.50;99.90;;;;;;4983229;28;20455;-77
2023/08/22 02:27:12;;;;;;;10.20;7.07;;;15.50;99.90;;;;;;4989699;23;20105;-76
2023/08/22 02:29:41;;;;;;;10.55;7.82;;;16.90;99.90;;;;;;4989583;23;20053;-75
2023/08/22 02:32:07;;;;;;;11.57;7.75;;;15.40;99.90;;;;;;4962598;28;20054;-75
2023/08/22 02:34:33;;;;;;;13.18;7.10;;;15.40;99.90;;;;;;4961620;28;20252;-76
2023/08/22 02:37:11;;;;;;;9.07;6.68;;;15.50;99.90;;;;;;4961362;28;20176;-75
2023/08/22 02:39:36;;;;;;;9.65;6.10;;;15.50;99.90;;;;;;4981183;23;20559;-76
2023/08/22 02:42:03;;;;;;;8.25;6.53;;;15.40;99.90;;;;;;4961889;28;20142;-75
2023/08/22 02:44:28;;;;;;;13.85;6.95;;;15.40;99.90;;;;;;4946324;28;20043;-76
2023/08/22 02:46:54;;;;;;;13.40;6.97;;;15.50;99.90;;;;;;4964056;28;20563;-76
2023/08/22 02:49:20;;;;;;;10.15;5.93;;;15.40;99.90;;;;;;4945808;28;20043;-76
2023/08/22 02:51:45;;;;;;;8.38;5.75;;;15.50;99.90;;;;;;4951512;28;20073;-76
2023/08/22 02:54:11;;;;;;;11.45;6.35;;;15.50;99.90;;;;;;4957007;28;20050;-76
2023/08/22 02:56:37;;;;;;;10.70;6.60;;;15.40;99.90;;;;;;4946705;28;20488;-77
2023/08/22 02:59:03;;;;;;;8.35;6.00;;;15.40;99.90;;;;;;4926814;28;20063;-77
2023/08/22 03:01:29;;;;;;;8.63;6.38;;;15.40;99.90;;;;;;4925627;28;20125;-76
2023/08/22 03:03:55;;;;;;;11.02;6.10;;;15.40;99.90;;;;;;4925914;28;20051;-76
2023/08/22 03:06:22;;;;;;;10.18;6.70;;;15.40;99.90;;;;;;4929945;28;20515;-76
2023/08/22 03:08:48;;;;;;;14.63;6.65;;;15.30;99.90;;;;;;4943722;28;20047;-76
2023/08/22 03:11:14;;;;;;;9.45;5.68;;;15.30;99.90;;;;;;4939901;28;20062;-76
2023/08/22 03:13:40;;;;;;;10.15;5.82;;;15.30;99.90;;;;;;4924100;28;20050;-76
2023/08/22 03:16:06;;;;;;;14.10;7.03;;;15.20;99.90;;;;;;4961682;28;20097;-76
2023/08/22 03:18:32;;;;;;;8.40;5.90;;;15.20;99.90;;;;;;4939159;28;20198;-76
2023/08/22 03:20:58;;;;;;;9.90;6.32;;;15.20;99.90;;;;;;4942355;28;20054;-77
2023/08/22 03:23:23;;;;;;;9.70;7.10;;;15.20;99.90;;;;;;4925281;28;20046;-76
2023/08/22 03:26:00;;;;;;;7.53;6.03;;;15.20;99.90;;;;;;4950596;28;20049;-76
2023/08/22 03:28:26;;;;;;;9.32;6.78;;;15.20;99.90;;;;;;4940887;28;20050;-76
2023/08/22 03:31:03;;;;;;;6.85;5.82;;;15.20;99.90;;;;;;4949404;28;21008;-75
2023/08/22 03:33:30;;;;;;;11.38;6.30;;;15.20;99.90;;;;;;4942636;28;20125;-77
2023/08/22 03:35:56;;;;;;;10.85;6.95;;;15.10;99.90;;;;;;4933177;28;20058;-77
2023/08/22 03:38:23;;;;;;;9.65;6.63;;;15.10;99.90;;;;;;4927897;28;20122;-76
2023/08/22 03:40:49;;;;;;;10.90;6.28;;;15.10;99.90;;;;;;4929123;28;20094;-76
2023/08/22 03:43:18;;;;;;;8.98;6.45;;;15.00;99.90;;;;;;4921584;29;20153;-77
2023/08/22 03:45:45;;;;;;;10.50;6.07;;;14.90;99.90;;;;;;4921126;29;20063;-76
2023/08/22 03:48:11;;;;;;;10.38;5.65;;;14.90;99.90;;;;;;4921423;29;20055;-76
2023/08/22 03:50:41;;;;;;;7.82;5.85;;;14.70;99.90;;;;;;4929592;28;20047;-76
2023/08/22 03:53:11;;;;;;;8.27;5.85;;;14.70;99.90;;;;;;4921720;29;20058;-76
2023/08/22 03:55:36;;;;;;;11.25;6.30;;;14.60;99.90;;;;;;4925421;28;20148;-76
2023/08/22 03:58:02;;;;;;;5.22;4.72;;;14.60;99.90;;;;;;4924547;29;20051;-76
2023/08/22 04:00:29;;;;;;;6.60;3.33;;;14.50;99.90;;;;;;4924135;28;20128;-76
2023/08/22 04:02:56;;;;;;;5.00;3.65;;;14.80;99.90;;;;;;4921108;29;20051;-76
2023/08/22 04:05:23;;;;;;;8.30;3.65;;;14.40;99.90;;;;;;4921937;29;20058;-76
2023/08/22 04:07:49;;;;;;;5.45;4.05;;;14.30;99.90;;;;;;4923734;29;20051;-76
2023/08/22 04:10:15;;;;;;;10.95;5.25;;;14.30;99.90;;;;;;4908454;29;20113;-77
2023/08/22 04:12:41;;;;;;;10.38;4.65;;;11.40;99.90;;;;;;4923185;28;20046;-76
2023/08/22 04:15:08;;;;;;;7.28;4.95;;;13.70;99.90;;;;;;4905099;28;20123;-76
2023/08/22 04:17:34;;;;;;;7.72;5.20;;;14.10;99.90;;;;;;4928224;28;20618;-76
2023/08/22 04:20:00;;;;;;;8.65;4.57;;;16.70;99.90;;;;;;4920412;29;20054;-76
2023/08/22 04:22:26;;;;;;;4.70;3.45;;;14.00;99.90;;;;;;4939845;28;20509;-76
2023/08/22 04:24:51;;;;;;;7.88;3.90;;;14.00;99.90;;;;;;4915785;29;20039;-76
2023/08/22 04:27:18;;;;;;;5.72;2.45;;;13.90;99.90;;;;;;4910496;28;20045;-76
2023/08/22 04:29:43;;;;;;;5.65;2.20;;;13.80;99.90;;;;;;4919095;29;20055;-76
2023/08/22 04:32:09;;;;;;;3.22;1.45;;;13.80;99.90;;;;;;4924196;29;20073;-76
2023/08/22 04:34:35;;;;;;;1.85;0.85;;;13.70;99.90;;;;;;4920546;29;20497;-76
2023/08/22 04:37:00;;;;;;;5.90;1.08;;;13.70;99.90;;;;;;4918461;29;20094;-76
2023/08/22 04:39:26;;;;;;;2.38;1.80;;;13.70;99.90;;;;;;4908673;28;20066;-75
2023/08/22 04:41:52;;;;;;;4.10;1.80;;;13.60;99.90;;;;;;4947504;28;20058;-76
2023/08/22 04:44:17;;;;;;;1.52;1.05;;;13.60;99.90;;;;;;4943668;28;20042;-76
2023/08/22 04:46:43;;;;;;;2.10;1.25;;;13.60;99.90;;;;;;4937510;28;20091;-76
2023/08/22 04:49:09;;;;;;;1.63;1.05;;;13.60;99.90;;;;;;4945084;28;20166;-75
2023/08/22 04:51:34;;;;;;;2.35;0.60;;;13.60;99.90;;;;;;4940948;28;20043;-75
2023/08/22 04:54:00;;;;;;;2.25;0.88;;;13.60;99.90;;;;;;4942249;28;20126;-75
2023/08/22 04:56:26;;;;;;;2.95;1.10;;;13.60;99.90;;;;;;4925450;28;20837;-75
2023/08/22 04:58:52;;;;;;;1.33;0.90;;;13.60;99.90;;;;;;4941227;28;20054;-75
2023/08/22 05:01:18;;;;;;;4.20;1.38;;;13.60;99.90;;;;;;4939323;28;20392;-75
2023/08/22 05:03:45;;;;;;;2.03;0.70;;;13.60;99.90;;;;;;4939663;28;20062;-76
2023/08/22 05:06:11;;;;;;;1.35;0.60;;;13.60;99.90;;;;;;4944945;28;20765;-75
2023/08/22 05:08:37;;;;;;;3.13;0.30;;;13.60;99.90;;;;;;4927744;28;20058;-75
2023/08/22 05:11:02;;;;;;;0.80;0.30;;;13.60;99.90;;;;;;4932639;28;20614;-75
2023/08/22 05:13:28;;;;;;;0.80;0.40;;;13.70;99.90;;;;;;4944927;28;20054;-75
2023/08/22 05:15:54;;;;;;;1.15;0.40;;;13.80;99.90;;;;;;4924434;28;21020;-75
2023/08/22 05:18:19;;;;;;;1.02;0.30;;;13.90;99.90;;;;;;4943268;28;20046;-76
2023/08/22 05:20:48;;;;;;;1.25;0.40;;;14.00;99.90;;;;;;4936358;28;20702;-75
2023/08/22 05:23:14;;;;;;;0.40;0.20;;;14.10;99.90;;;;;;4943459;28;20058;-75
2023/08/22 05:25:40;;;;;;;1.83;0.28;;;14.20;99.90;;;;;;4956124;28;20416;-75
2023/08/22 05:28:05;;;;;;;0.60;0.20;;;14.30;99.90;;;;;;4939559;28;20058;-75
2023/08/22 05:30:31;;;;;;;0.40;0.20;;;14.50;99.90;;;;;;4943553;28;20864;-75
2023/08/22 05:32:57;;;;;;;0.40;0.20;;;14.50;99.90;;;;;;4942134;28;20131;-75
2023/08/22 05:35:22;;;;;;;3.22;0.40;;;14.60;99.90;;;;;;4945665;28;20055;-75
2023/08/22 05:37:48;;;;;;;1.50;0.20;;;14.80;99.90;;;;;;4939600;28;20047;-75
2023/08/22 05:40:14;;;;;;;1.33;0.20;;;15.00;99.90;;;;;;4939590;28;20728;-76
2023/08/22 05:42:40;;;;;;;2.85;0.30;;;15.40;99.90;;;;;;4939579;28;20189;-75
2023/08/22 05:45:07;;;;;;;0.80;0.30;;;15.70;99.90;;;;;;4920296;28;20115;-75
2023/08/22 05:47:32;;;;;;;1.20;0.68;;;16.80;99.90;;;;;;4939547;28;20588;-75
2023/08/22 05:49:58;;;;;;;2.58;0.77;;;17.60;99.90;;;;;;4955568;28;20054;-75
2023/08/22 05:52:25;;;;;;;3.33;0.77;;;18.50;99.90;;;;;;4945558;28;20520;-76
2023/08/22 05:54:50;;;;;;;2.30;1.10;;;19.50;99.90;;;;;;4938968;28;20496;-75
2023/08/22 05:57:16;;;;;;;6.70;2.85;;;19.60;99.90;;;;;;4943712;28;20133;-76
2023/08/22 05:59:42;;;;;;;6.07;3.00;;;20.40;99.90;;;;;;4941059;28;20237;-76
2023/08/22 06:02:08;;;;;;;8.77;3.75;;;21.50;99.90;;;;;;4941970;28;20047;-76
2023/08/22 06:04:33;;;;;;;10.68;4.80;;;22.30;99.90;;;;;;4947109;28;20886;-76
2023/08/22 06:06:59;;;;;;;9.95;6.07;;;22.70;99.90;;;;;;4941474;28;20046;-76
2023/08/22 06:09:25;;;;;;;8.98;6.30;;;23.50;99.90;;;;;;4939560;28;20074;-76
2023/08/22 06:11:51;;;;;;;10.50;5.88;;;23.90;99.90;;;;;;4946950;28;20061;-76
2023/08/22 06:14:16;;;;;;;11.00;5.72;;;24.70;99.90;;;;;;4934071;28;20057;-76
2023/08/22 06:16:42;;;;;;;8.13;4.93;;;25.90;99.90;;;;;;4958461;23;20049;-76
2023/08/22 06:19:08;;;;;;;8.55;5.10;;;26.80;99.20;;;;;;4945197;23;20067;-77
2023/08/22 06:21:34;;;;;;;7.20;4.20;;;27.00;98.50;;;;;;4942933;28;20050;-77
2023/08/22 06:23:59;;;;;;;7.78;5.40;;;27.10;97.70;;;;;;4930947;28;20088;-76
2023/08/22 06:26:25;;;;;;;8.73;5.57;;;27.50;98.00;;;;;;4942000;28;20066;-76
2023/08/22 06:28:51;;;;;;;8.10;5.63;;;26.20;97.40;;;;;;4944471;28;20050;-76
2023/08/22 06:31:17;;;;;;;8.02;5.85;;;25.90;97.30;;;;;;4927262;28;20051;-76
2023/08/22 06:33:43;;;;;;;8.77;5.60;;;25.30;97.50;;;;;;4947440;28;20054;-76
2023/08/22 06:36:08;;;;;;;9.85;6.20;;;24.70;97.80;;;;;;4940306;28;20066;-77
2023/08/22 06:38:34;;;;;;;11.30;6.53;;;24.20;98.20;;;;;;4942116;28;20133;-76
2023/08/22 06:41:09;;;;;;;10.20;6.40;;;23.80;98.50;;;;;;4939134;28;20307;-76
2023/08/22 06:43:35;;;;;;;8.45;5.38;;;23.40;98.80;;;;;;4934858;28;20131;-75
2023/08/22 06:46:01;;;;;;;7.57;6.05;;;23.30;99.20;;;;;;4936394;28;20066;-75
2023/08/22 06:48:27;;;;;;;7.95;6.40;;;23.10;99.50;;;;;;4951057;28;20393;-75
2023/08/22 06:50:53;;;;;;;8.75;6.28;;;23.20;99.50;;;;;;4925095;28;20810;-76
2023/08/22 06:53:19;;;;;;;8.52;6.05;;;23.90;99.10;;;;;;4949349;28;20055;-76
2023/08/22 06:55:46;;;;;;;10.23;5.18;;;25.00;98.40;;;;;;4943195;28;20067;-76
2023/08/22 06:58:12;;;;;;;9.73;5.43;;;26.50;97.40;;;;;;4965041;28;20412;-77
2023/08/22 07:00:38;;;;;;;8.00;4.65;;;27.90;96.00;;;;;;4929970;28;20047;-76
2023/08/22 07:03:04;;;;;;;7.95;4.18;;;29.00;94.50;;;;;;4930404;28;20085;-75
2023/08/22 07:05:29;;;;;;;9.13;4.65;;;30.00;92.80;;;;;;4940584;28;20043;-77
2023/08/22 07:07:56;;;;;;;9.40;4.00;;;30.80;90.80;;;;;;4958335;28;20057;-77
2023/08/22 07:10:22;;;;;;;7.43;4.50;;;31.30;88.60;;;;;;4922977;28;20117;-76
2023/08/22 07:12:48;;;;;;;7.05;3.42;;;31.20;86.10;;;;;;4928754;28;20125;-76
2023/08/22 07:15:14;;;;;;;7.28;3.03;;;30.70;85.40;;;;;;4927757;28;20121;-76
2023/08/22 07:17:39;;;;;;;8.48;3.40;;;30.50;84.70;;;;;;4925678;28;20055;-77
2023/08/22 07:20:06;;;;;;;7.28;3.15;;;29.90;85.10;;;;;;4943760;28;20144;-75
2023/08/22 07:22:33;;;;;;;6.07;3.10;;;29.30;85.60;;;;;;4940557;28;20130;-75
2023/08/22 07:24:59;;;;;;;3.30;2.50;;;28.70;86.20;;;;;;4925728;28;20041;-76
2023/08/22 07:27:25;;;;;;;7.85;2.97;;;28.10;87.00;;;;;;4939179;28;20050;-76
2023/08/22 07:29:51;;;;;;;4.78;2.42;;;27.50;87.60;;;;;;4937027;28;20046;-75
2023/08/22 07:32:20;;;;;;;6.05;2.60;;;26.80;89.00;;;;;;4942368;28;20050;-76
2023/08/22 07:34:47;;;;;;;8.43;2.40;;;26.30;90.20;;;;;;4945610;28;20125;-76
2023/08/22 07:37:13;;;;;;;8.40;3.10;;;25.90;90.80;;;;;;4939747;28;20169;-76
2023/08/22 07:39:40;;;;;;;5.28;2.05;;;25.50;91.10;;;;;;4931192;28;20133;-76
2023/08/22 07:42:06;;;;;;;4.25;1.42;;;25.20;91.40;;;;;;4936916;28;20141;-78
2023/08/22 07:44:32;;;;;;;4.97;1.02;;;24.90;91.70;;;;;;4922772;28;20047;-77
2023/08/22 07:46:58;;;;;;;3.28;1.50;;;24.60;91.90;;;;;;4956370;28;20054;-77
2023/08/22 07:49:27;;;;;;;6.38;2.20;;;24.30;92.20;;;;;;4949173;28;20046;-78
2023/08/22 07:51:52;;;;;;;4.38;1.42;;;24.10;92.60;;;;;;4966736;23;20058;-77
2023/08/22 07:54:18;;;;;;;5.00;2.00;;;24.00;93.00;;;;;;4974261;23;20349;-74
2023/08/22 07:56:47;;;;;;;7.80;2.45;;;24.00;93.20;;;;;;4974437;28;20852;-76
2023/08/22 07:59:13;;;;;;;7.43;2.90;;;24.00;93.30;;;;;;4943401;28;20054;-76
2023/08/22 08:01:40;;;;;;;5.43;1.77;;;24.10;93.50;;;;;;4974252;28;20571;-77
2023/08/22 08:04:08;;;;;;;5.22;2.28;;;24.20;93.40;;;;;;4958465;28;20500;-75
2023/08/22 08:06:34;;;;;;;4.35;1.27;;;24.30;93.40;;;;;;4960490;28;20081;-76
2023/08/22 08:09:01;;;;;;;5.20;1.60;;;24.40;93.50;;;;;;4958616;28;20050;-76
2023/08/22 08:11:31;;;;;;;6.57;1.98;;;24.60;93.10;;;;;;4939704;28;20477;-74
2023/08/22 08:13:57;;;;;;;4.10;1.63;;;24.70;92.80;;;;;;4959777;28;20049;-75
2023/08/22 08:16:23;;;;;;;3.42;1.63;;;24.60;92.80;;;;;;4932547;28;20046;-76
2023/08/22 08:18:51;;;;;;;5.13;1.42;;;24.80;92.70;;;;;;4936520;28;20054;-74
2023/08/22 08:21:17;;;;;;;5.43;1.65;;;25.20;92.60;;;;;;4950789;28;20488;-74
2023/08/22 08:23:44;;;;;;;5.68;1.60;;;25.20;92.60;;;;;;4952734;28;20078;-74
2023/08/22 08:26:11;;;;;;;4.72;2.00;;;25.30;92.60;;;;;;4951335;28;20125;-75
2023/08/22 08:28:37;;;;;;;7.75;2.83;;;25.40;92.40;;;;;;4934141;28;20113;-80
2023/08/22 08:31:03;;;;;;;6.40;2.10;;;25.40;92.20;;;;;;4952272;28;20085;-77
2023/08/22 08:33:29;;;;;;;5.63;1.90;;;25.40;91.90;;;;;;4952632;28;20157;-74
2023/08/22 08:35:55;;;;;;;5.90;2.15;;;25.40;91.80;;;;;;4938837;28;20050;-78
2023/08/22 08:38:20;;;;;;;3.80;2.00;;;25.40;91.70;;;;;;4956390;28;20403;-76
2023/08/22 08:40:46;;;;;;;4.32;1.58;;;25.50;91.60;;;;;;4956097;28;20125;-76
2023/08/22 08:43:12;;;;;;;5.15;1.63;;;25.80;91.40;;;;;;4947043;28;20050;-77
2023/08/22 08:45:39;;;;;;;6.85;2.72;;;26.20;91.40;;;;;;4960227;28;20042;-76
2023/08/22 08:48:07;;;;;;;5.90;2.00;;;26.50;91.00;;;;;;4975441;28;20061;-75
2023/08/22 08:50:33;;;;;;;6.60;2.35;;;26.50;90.80;;;;;;4954147;28;20038;-75
2023/08/22 08:52:59;;;;;;;8.43;1.60;;;26.50;90.80;;;;;;4963875;28;20488;-74
2023/08/22 08:55:25;;;;;;;5.90;1.20;;;26.70;90.50;;;;;;4966199;28;20050;-76
2023/08/22 08:57:57;;;;;;;3.65;1.17;;;26.60;90.10;;;;;;4946072;28;20054;-75
2023/08/22 09:00:23;;;;;;;5.30;1.45;;;26.60;90.00;;;;;;4951755;28;20511;-76
2023/08/22 09:02:50;;;;;;;4.22;1.05;;;27.00;90.30;;;;;;4960975;28;20051;-75
2023/08/22 09:05:15;;;;;;;4.88;1.10;;;27.60;89.30;;;;;;4965380;28;20058;-75
2023/08/22 09:07:43;;;;;;;3.65;0.60;;;28.00;88.10;;;;;;4965116;28;20050;-75
2023/08/22 09:10:09;;;;;;;4.03;0.77;;;28.50;86.40;;;;;;4938850;28;20066;-76
2023/08/22 09:12:36;;;;;;;2.58;0.50;;;28.50;84.50;;;;;;4945024;28;20049;-77
2023/08/22 09:15:02;;;;;;;2.97;0.40;;;28.60;83.90;;;;;;4953200;28;20062;-74
2023/08/22 09:17:29;;;;;;;2.25;0.40;;;29.10;83.50;;;;;;4946791;28;20046;-75
2023/08/22 09:19:56;;;;;;;2.22;0.25;;;29.40;81.80;;;;;;4946584;28;20191;-76
2023/08/22 09:22:29;;;;;;;4.75;0.50;;;29.60;81.10;;;;;;4943722;28;20869;-77
2023/08/22 09:24:55;;;;;;;2.33;0.45;;;29.80;80.80;;;;;;4940995;28;20082;-78
2023/08/22 09:27:24;;;;;;;10.35;1.02;;;30.20;79.90;;;;;;4954652;28;20456;-76
2023/08/22 09:29:50;;;;;;;5.95;0.32;;;30.40;79.40;;;;;;4941385;28;20113;-76
2023/08/22 09:32:16;;;;;;;5.05;0.40;;;30.70;78.70;;;;;;4959048;28;20527;-77
2023/08/22 09:34:53;;;;;;;4.05;0.30;;;31.10;77.30;;;;;;4947176;28;20061;-79
2023/08/22 09:37:40;;;;;;;8.07;0.55;;;31.30;75.80;;;;;;4982879;28;20115;-77
2023/08/22 09:40:09;;;;;;;3.85;0.47;;;31.60;75.70;;;;;;4964344;28;20065;-77
2023/08/22 09:42:39;;;;;;;4.43;0.20;;;31.70;74.30;;;;;;4962274;28;20053;-74
2023/08/22 09:45:07;;;;;;;2.97;0.20;;;31.90;73.50;;;;;;4947452;28;20074;-75
2023/08/22 09:47:39;;;;;;;3.35;0.20;;;31.90;72.40;;;;;;4966683;28;20288;-76
2023/08/22 09:50:06;;;;;;;1.13;0.20;;;30.30;70.90;;;;;;4966386;28;20062;-73
2023/08/22 09:52:36;;;;;;;1.50;0.30;;;31.40;71.00;;;;;;4965555;28;20038;-77
2023/08/22 09:55:04;;;;;;;2.75;0.25;;;31.00;70.80;;;;;;4946240;28;20058;-76
2023/08/22 09:57:30;;;;;;;1.25;0.10;;;30.70;71.50;;;;;;4938641;28;20140;-77
2023/08/22 09:59:59;;;;;;;3.28;0.30;;;30.00;71.90;;;;;;4946415;28;20062;-74
2023/08/22 10:02:26;;;;;;;1.67;0.57;;;29.70;72.80;;;;;;4937710;28;20054;-76
2023/08/22 10:04:53;;;;;;;1.55;0.17;;;29.50;73.20;;;;;;4946326;28;20125;-75
2023/08/22 10:07:19;;;;;;;1.58;0.20;;;29.30;73.10;;;;;;4926162;28;20607;-77
2023/08/22 10:09:45;;;;;;;3.15;0.35;;;29.00;73.90;;;;;;4926205;28;20106;-79
2023/08/22 10:12:14;;;;;;;1.05;0.20;;;28.70;73.30;;;;;;4939094;28;20174;-77
2023/08/22 10:14:56;;;;;;;1.85;0.13;;;28.20;74.10;;;;;;4939727;28;20046;-75
2023/08/22 10:17:27;;;;;;;1.27;0.17;;;27.90;74.40;;;;;;4928538;28;20804;-76
2023/08/22 10:20:01;;;;;;;1.42;0.10;;;27.60;75.10;;;;;;4936606;28;20058;-77
2023/08/22 10:22:34;;;;;;;1.00;0.17;;;27.60;75.60;;;;;;4936035;28;20130;-75
2023/08/22 10:25:06;;;;;;;2.78;0.30;;;27.60;74.60;;;;;;4927207;28;20059;-76
2023/08/22 10:27:35;;;;;;;3.10;0.30;;;27.30;74.40;;;;;;4942178;28;20113;-79
2023/08/22 10:30:14;;;;;;;2.15;0.30;;;27.30;74.90;;;;;;4954553;28;20069;-76
2023/08/22 10:32:41;;;;;;;3.70;0.65;;;27.50;76.70;;;;;;4944592;28;20047;-78
2023/08/22 10:35:12;;;;;;;1.83;0.30;;;27.60;78.30;;;;;;4924674;28;20047;-77
2023/08/22 10:37:47;;;;;;;2.03;0.30;;;27.80;76.60;;;;;;4943733;28;20046;-79
2023/08/22 10:40:29;;;;;;;2.33;0.20;;;27.80;75.60;;;;;;4928682;28;20053;-78
2023/08/22 10:43:09;;;;;;;2.50;0.30;;;27.70;75.00;;;;;;4934655;28;20067;-74
2023/08/22 10:45:37;;;;;;;2.08;0.40;;;27.70;76.10;;;;;;4955499;28;20051;-74
2023/08/22 10:48:11;;;;;;;2.03;0.40;;;27.80;75.30;;;;;;4942522;28;20051;-75
2023/08/22 10:50:41;;;;;;;5.38;0.70;;;27.70;75.50;;;;;;4925363;28;20613;-76
2023/08/22 10:53:20;;;;;;;3.22;0.82;;;27.50;76.10;;;;;;4940362;28;20054;-82
2023/08/22 10:55:47;;;;;;;2.45;0.40;;;27.30;76.50;;;;;;4982280;28;20062;-76
2023/08/22 10:58:33;;;;;;;2.72;0.63;;;26.90;76.20;;;;;;4976485;28;20046;-75
2023/08/22 11:00:59;;;;;;;2.80;0.50;;;26.70;77.00;;;;;;4973285;28;20061;-78
2023/08/22 11:03:26;;;;;;;3.88;0.43;;;26.30;78.60;;;;;;4977721;28;20403;-76
2023/08/22 11:05:51;;;;;;;3.15;0.60;;;26.10;79.00;;;;;;4979343;28;20057;-74
2023/08/22 11:08:17;;;;;;;4.30;0.82;;;25.90;79.60;;;;;;4975606;28;20050;-75
2023/08/22 11:10:44;;;;;;;1.55;0.50;;;25.80;79.30;;;;;;4975958;28;20050;-77
2023/08/22 11:13:10;;;;;;;3.20;0.50;;;25.80;79.60;;;;;;4976900;28;20397;-74
2023/08/22 11:15:36;;;;;;;3.63;0.80;;;25.60;80.90;;;;;;4958030;28;20047;-79
2023/08/22 11:18:05;;;;;;;3.60;0.73;;;25.50;81.20;;;;;;4977234;28;20050;-77
2023/08/22 11:20:31;;;;;;;2.58;0.57;;;25.40;81.40;;;;;;4974159;28;20050;-78
2023/08/22 11:22:57;;;;;;;3.50;0.57;;;25.30;82.40;;;;;;4978991;28;20050;-76
2023/08/22 11:25:25;;;;;;;2.83;0.50;;;25.20;83.20;;;;;;4975932;28;20707;-81
2023/08/22 11:27:51;;;;;;;4.80;0.70;;;25.10;83.60;;;;;;4953945;28;20157;-74
2023/08/22 11:30:18;;;;;;;2.15;0.30;;;25.10;83.00;;;;;;4960356;28;20046;-77
2023/08/22 11:32:45;;;;;;;3.22;1.02;;;25.10;82.40;;;;;;4976560;28;20207;-74
2023/08/22 11:35:11;;;;;;;1.50;0.35;;;25.10;81.10;;;;;;4983003;28;20054;-77
2023/08/22 11:37:41;;;;;;;2.58;0.30;;;25.10;82.40;;;;;;4965470;28;20844;-83
2023/08/22 11:40:10;;;;;;;2.47;0.40;;;25.10;83.30;;;;;;4961134;28;20068;-75
2023/08/22 11:42:37;;;;;;;0.70;0.30;;;25.00;83.30;;;;;;4965699;28;20154;-80
2023/08/22 11:45:08;;;;;;;3.53;1.08;;;25.00;83.30;;;;;;4978795;28;20050;-76
2023/08/22 11:47:42;;;;;;;2.63;0.50;;;25.00;82.90;;;;;;4963972;28;20043;-81
2023/08/22 11:50:16;;;;;;;0.63;0.15;;;24.90;84.40;;;;;;4961967;28;20050;-82
2023/08/22 11:52:43;;;;;;;2.38;0.25;;;24.80;84.70;;;;;;4962438;28;20157;-81
2023/08/22 11:55:11;;;;;;;4.32;0.30;;;24.80;84.40;;;;;;4975620;28;20073;-78
2023/08/22 11:57:40;;;;;;;2.92;0.25;;;24.80;84.70;;;;;;4973475;28;20062;-76
2023/08/22 12:00:08;;;;;;;2.78;0.47;;;24.70;83.70;;;;;;4981645;28;20054;-76
2023/08/22 12:02:35;;;;;;;1.55;0.40;;;24.70;83.90;;;;;;4959099;28;20587;-78
2023/08/22 12:05:01;;;;;;;0.68;0.10;;;24.70;84.20;;;;;;4976642;28;20038;-79
2023/08/22 12:07:27;;;;;;;1.25;0.20;;;24.60;84.70;;;;;;4975499;28;20657;-76
2023/08/22 12:10:05;;;;;;;1.92;0.30;;;24.60;85.50;;;;;;4974876;28;20065;-75
2023/08/22 12:12:32;;;;;;;1.58;0.10;;;24.70;85.10;;;;;;4975656;28;20041;-78
2023/08/22 12:14:59;;;;;;;2.92;0.20;;;24.70;85.10;;;;;;4973668;28;20061;-82
2023/08/22 12:17:26;;;;;;;2.40;0.30;;;24.70;85.00;;;;;;4974321;28;20127;-80
2023/08/22 12:19:51;;;;;;;2.03;0.10;;;24.70;85.40;;;;;;4971735;28;20053;-76
2023/08/22 12:22:18;;;;;;;2.30;0.15;;;24.70;85.40;;;;;;4973576;28;20050;-78
2023/08/22 12:24:44;;;;;;;3.40;0.28;;;24.70;85.80;;;;;;4974325;28;20042;-80
2023/08/22 12:27:12;;;;;;;0.50;0.13;;;24.70;86.10;;;;;;4972445;28;20555;-81
2023/08/22 12:29:39;;;;;;;1.23;0.10;;;24.70;86.00;;;;;;4963847;28;20057;-77
2023/08/22 12:32:05;;;;;;;4.25;1.05;;;24.70;85.20;;;;;;4962030;28;20042;-77
2023/08/22 12:34:31;;;;;;;2.47;0.20;;;24.70;84.70;;;;;;4972950;28;20043;-82
2023/08/22 12:36:57;;;;;;;2.58;0.20;;;24.70;84.50;;;;;;4996639;28;20088;-81
2023/08/22 12:39:23;;;;;;;2.08;0.20;;;24.70;84.30;;;;;;4972934;28;20042;-80
2023/08/22 12:41:48;;;;;;;2.08;0.10;;;24.70;84.10;;;;;;4977128;28;20575;-80
2023/08/22 12:44:14;;;;;;;1.33;0.20;;;24.70;84.20;;;;;;4975198;28;20108;-81
2023/08/22 12:46:41;;;;;;;1.67;0.20;;;24.70;84.90;;;;;;4977764;28;20131;-81